sensor_id;sensor_type;location;lat;lon;timestamp;temperature;humidity
43647;DHT22;56152;49.996;18.980;2023-04-28T00:02:55;1.10;81.40
43647;DHT22;56152;49.996;18.980;2023-04-28T00:07:58;1.10;81.40
43647;DHT22;56152;49.996;18.980;2023-04-28T00:13:03;1.10;81.60
43647;DHT22;56152;49.996;18.980;2023-04-28T00:18:08;1.00;81.60
43647;DHT22;56152;49.996;18.980;2023-04-28T00:23:10;0.90;81.70
43647;DHT22;56152;49.996;18.980;2023-04-28T00:28:12;0.70;81.70
43647;DHT22;56152;49.996;18.980;2023-04-28T00:33:15;0.70;82.00
43647;DHT22;56152;49.996;18.980;2023-04-28T00:38:17;0.50;82.20
43647;DHT22;56152;49.996;18.980;2023-04-28T00:43:20;0.50;82.40
43647;DHT22;56152;49.996;18.980;2023-04-28T00:48:24;0.50;83.30
43647;DHT22;56152;49.996;18.980;2023-04-28T00:53:30;0.50;82.70
43647;DHT22;56152;49.996;18.980;2023-04-28T00:58:33;0.50;82.70
43647;DHT22;56152;49.996;18.980;2023-04-28T01:03:38;0.50;82.70
43647;DHT22;56152;49.996;18.980;2023-04-28T01:08:41;0.50;83.20
43647;DHT22;56152;49.996;18.980;2023-04-28T01:13:45;0.40;82.80
43647;DHT22;56152;49.996;18.980;2023-04-28T01:18:51;0.30;83.00
43647;DHT22;56152;49.996;18.980;2023-04-28T01:23:55;0.20;82.90
43647;DHT22;56152;49.996;18.980;2023-04-28T01:28:57;0.10;83.10
43647;DHT22;56152;49.996;18.980;2023-04-28T01:34:00;0.20;83.30
43647;DHT22;56152;49.996;18.980;2023-04-28T01:39:03;0.10;83.40
43647;DHT22;56152;49.996;18.980;2023-04-28T01:44:08;0.10;83.40
43647;DHT22;56152;49.996;18.980;2023-04-28T01:49:11;0.10;83.60
43647;DHT22;56152;49.996;18.980;2023-04-28T01:54:15;0.10;83.70
43647;DHT22;56152;49.996;18.980;2023-04-28T01:59:17;0.00;83.70
43647;DHT22;56152;49.996;18.980;2023-04-28T02:04:20;-0.10;83.90
43647;DHT22;56152;49.996;18.980;2023-04-28T02:09:25;-0.10;83.90
43647;DHT22;56152;49.996;18.980;2023-04-28T02:14:28;-0.10;83.90
43647;DHT22;56152;49.996;18.980;2023-04-28T02:19:31;-0.20;84.00
43647;DHT22;56152;49.996;18.980;2023-04-28T02:24:38;-0.30;84.10
43647;DHT22;56152;49.996;18.980;2023-04-28T02:29:40;-0.30;84.30
43647;DHT22;56152;49.996;18.980;2023-04-28T02:34:43;-0.30;84.30
43647;DHT22;56152;49.996;18.980;2023-04-28T02:39:47;-0.40;84.30
43647;DHT22;56152;49.996;18.980;2023-04-28T02:44:50;-0.40;84.50
43647;DHT22;56152;49.996;18.980;2023-04-28T02:49:54;-0.40;84.60
43647;DHT22;56152;49.996;18.980;2023-04-28T02:54:58;-0.40;84.50
43647;DHT22;56152;49.996;18.980;2023-04-28T03:00:08;-0.40;84.50
43647;DHT22;56152;49.996;18.980;2023-04-28T03:05:11;-0.40;84.50
43647;DHT22;56152;49.996;18.980;2023-04-28T03:10:14;-0.40;84.50
43647;DHT22;56152;49.996;18.980;2023-04-28T03:15:17;-0.40;84.70
43647;DHT22;56152;49.996;18.980;2023-04-28T03:20:20;-0.30;84.80
43647;DHT22;56152;49.996;18.980;2023-04-28T03:25:25;-0.40;84.70
43647;DHT22;56152;49.996;18.980;2023-04-28T03:30:26;-0.30;85.50
43647;DHT22;56152;49.996;18.980;2023-04-28T03:35:29;-0.30;84.90
43647;DHT22;56152;49.996;18.980;2023-04-28T03:40:33;-0.30;84.90
43647;DHT22;56152;49.996;18.980;2023-04-28T03:45:39;-0.20;84.90
43647;DHT22;56152;49.996;18.980;2023-04-28T03:50:41;-0.20;84.90
43647;DHT22;56152;49.996;18.980;2023-04-28T03:55:47;-0.10;85.00
43647;DHT22;56152;49.996;18.980;2023-04-28T04:00:49;0.00;85.00
43647;DHT22;56152;49.996;18.980;2023-04-28T04:05:53;0.20;85.00
43647;DHT22;56152;49.996;18.980;2023-04-28T04:10:57;0.30;84.80
43647;DHT22;56152;49.996;18.980;2023-04-28T04:15:59;0.50;84.70
43647;DHT22;56152;49.996;18.980;2023-04-28T04:21:01;0.70;84.60
43647;DHT22;56152;49.996;18.980;2023-04-28T04:26:05;1.10;84.40
43647;DHT22;56152;49.996;18.980;2023-04-28T04:31:07;1.50;84.00
43647;DHT22;56152;49.996;18.980;2023-04-28T04:36:09;1.90;83.60
43647;DHT22;56152;49.996;18.980;2023-04-28T04:41:14;2.30;83.40
43647;DHT22;56152;49.996;18.980;2023-04-28T04:46:16;2.60;82.90
43647;DHT22;56152;49.996;18.980;2023-04-28T04:51:19;2.90;82.60
43647;DHT22;56152;49.996;18.980;2023-04-28T04:56:23;3.10;82.30
43647;DHT22;56152;49.996;18.980;2023-04-28T05:01:27;3.20;82.40
43647;DHT22;56152;49.996;18.980;2023-04-28T05:06:28;3.50;82.40
43647;DHT22;56152;49.996;18.980;2023-04-28T05:11:32;4.00;82.30
43647;DHT22;56152;49.996;18.980;2023-04-28T05:16:34;4.70;81.90
43647;DHT22;56152;49.996;18.980;2023-04-28T05:21:36;5.20;80.90
43647;DHT22;56152;49.996;18.980;2023-04-28T05:26:40;5.50;79.90
43647;DHT22;56152;49.996;18.980;2023-04-28T05:31:42;5.40;79.70
43647;DHT22;56152;49.996;18.980;2023-04-28T05:36:44;5.40;79.50
43647;DHT22;56152;49.996;18.980;2023-04-28T05:41:49;5.40;79.80
43647;DHT22;56152;49.996;18.980;2023-04-28T05:46:51;5.40;79.60
43647;DHT22;56152;49.996;18.980;2023-04-28T05:51:52;5.50;79.70
43647;DHT22;56152;49.996;18.980;2023-04-28T05:56:56;5.70;79.80
43647;DHT22;56152;49.996;18.980;2023-04-28T06:01:58;5.90;79.60
43647;DHT22;56152;49.996;18.980;2023-04-28T06:07:00;6.20;79.10
43647;DHT22;56152;49.996;18.980;2023-04-28T06:12:07;6.40;78.80
43647;DHT22;56152;49.996;18.980;2023-04-28T06:17:09;6.60;78.70
43647;DHT22;56152;49.996;18.980;2023-04-28T06:22:11;6.70;78.60
43647;DHT22;56152;49.996;18.980;2023-04-28T06:27:15;6.90;78.50
43647;DHT22;56152;49.996;18.980;2023-04-28T06:32:18;7.50;77.70
43647;DHT22;56152;49.996;18.980;2023-04-28T06:37:20;7.90;77.00
43647;DHT22;56152;49.996;18.980;2023-04-28T06:42:24;8.10;76.00
43647;DHT22;56152;49.996;18.980;2023-04-28T06:47:26;8.60;75.50
43647;DHT22;56152;49.996;18.980;2023-04-28T06:52:30;9.20;74.70
43647;DHT22;56152;49.996;18.980;2023-04-28T06:57:34;9.60;73.80
43647;DHT22;56152;49.996;18.980;2023-04-28T07:02:37;10.20;72.80
43647;DHT22;56152;49.996;18.980;2023-04-28T07:07:40;10.80;71.80
43647;DHT22;56152;49.996;18.980;2023-04-28T07:12:44;11.20;70.40
43647;DHT22;56152;49.996;18.980;2023-04-28T07:17:46;11.50;69.70
43647;DHT22;56152;49.996;18.980;2023-04-28T07:22:49;11.80;69.30
43647;DHT22;56152;49.996;18.980;2023-04-28T07:27:56;12.10;68.80
43647;DHT22;56152;49.996;18.980;2023-04-28T07:32:58;12.50;68.00
43647;DHT22;56152;49.996;18.980;2023-04-28T07:37:59;12.90;67.10
43647;DHT22;56152;49.996;18.980;2023-04-28T07:43:04;13.30;66.40
43647;DHT22;56152;49.996;18.980;2023-04-28T07:48:06;13.50;65.20
43647;DHT22;56152;49.996;18.980;2023-04-28T07:53:09;13.70;64.40
43647;DHT22;56152;49.996;18.980;2023-04-28T07:58:12;13.50;64.40
43647;DHT22;56152;49.996;18.980;2023-04-28T08:03:15;13.80;63.80
43647;DHT22;56152;49.996;18.980;2023-04-28T08:08:18;14.30;62.60
43647;DHT22;56152;49.996;18.980;2023-04-28T08:13:22;14.70;60.90
43647;DHT22;56152;49.996;18.980;2023-04-28T08:18:24;15.00;59.90
43647;DHT22;56152;49.996;18.980;2023-04-28T08:23:26;15.10;58.80
43647;DHT22;56152;49.996;18.980;2023-04-28T08:28:35;15.40;57.60
43647;DHT22;56152;49.996;18.980;2023-04-28T08:33:40;15.40;56.30
43647;DHT22;56152;49.996;18.980;2023-04-28T08:38:49;15.70;56.10
43647;DHT22;56152;49.996;18.980;2023-04-28T08:43:53;15.80;54.10
43647;DHT22;56152;49.996;18.980;2023-04-28T08:49:02;16.10;54.40
43647;DHT22;56152;49.996;18.980;2023-04-28T08:54:07;16.50;54.70
43647;DHT22;56152;49.996;18.980;2023-04-28T08:59:11;16.60;53.50
43647;DHT22;56152;49.996;18.980;2023-04-28T09:04:15;16.20;53.70
43647;DHT22;56152;49.996;18.980;2023-04-28T09:09:19;16.90;53.60
43647;DHT22;56152;49.996;18.980;2023-04-28T09:14:23;17.10;52.40
43647;DHT22;56152;49.996;18.980;2023-04-28T09:19:33;16.60;51.20
43647;DHT22;56152;49.996;18.980;2023-04-28T09:24:37;16.60;51.40
43647;DHT22;56152;49.996;18.980;2023-04-28T09:29:52;16.60;51.90
43647;DHT22;56152;49.996;18.980;2023-04-28T09:34:55;17.20;50.90
43647;DHT22;56152;49.996;18.980;2023-04-28T09:40:02;16.90;50.30
43647;DHT22;56152;49.996;18.980;2023-04-28T09:45:09;16.80;50.20
43647;DHT22;56152;49.996;18.980;2023-04-28T09:50:13;16.90;51.10
43647;DHT22;56152;49.996;18.980;2023-04-28T09:55:16;17.40;49.50
43647;DHT22;56152;49.996;18.980;2023-04-28T10:00:22;17.30;48.10
43647;DHT22;56152;49.996;18.980;2023-04-28T10:05:27;17.20;49.40
43647;DHT22;56152;49.996;18.980;2023-04-28T10:10:34;17.80;48.70
43647;DHT22;56152;49.996;18.980;2023-04-28T10:15:39;18.30;48.70
43647;DHT22;56152;49.996;18.980;2023-04-28T10:20:44;18.40;47.40
43647;DHT22;56152;49.996;18.980;2023-04-28T10:25:48;18.20;47.00
43647;DHT22;56152;49.996;18.980;2023-04-28T10:31:12;17.60;48.20
43647;DHT22;56152;49.996;18.980;2023-04-28T10:36:48;17.40;46.10
43647;DHT22;56152;49.996;18.980;2023-04-28T10:41:54;17.50;46.60
43647;DHT22;56152;49.996;18.980;2023-04-28T10:47:02;17.40;47.60
43647;DHT22;56152;49.996;18.980;2023-04-28T10:52:18;17.90;47.40
43647;DHT22;56152;49.996;18.980;2023-04-28T10:57:40;18.00;45.10
43647;DHT22;56152;49.996;18.980;2023-04-28T11:02:45;18.70;48.10
43647;DHT22;56152;49.996;18.980;2023-04-28T11:13:43;19.50;47.30
43647;DHT22;56152;49.996;18.980;2023-04-28T11:18:51;20.00;46.00
43647;DHT22;56152;49.996;18.980;2023-04-28T11:23:54;20.20;45.70
43647;DHT22;56152;49.996;18.980;2023-04-28T11:28:57;20.60;45.50
43647;DHT22;56152;49.996;18.980;2023-04-28T11:34:03;20.80;45.00
43647;DHT22;56152;49.996;18.980;2023-04-28T11:39:07;20.90;44.30
43647;DHT22;56152;49.996;18.980;2023-04-28T11:44:11;20.60;44.60
43647;DHT22;56152;49.996;18.980;2023-04-28T11:49:16;20.80;44.80
43647;DHT22;56152;49.996;18.980;2023-04-28T11:54:20;20.70;44.00
43647;DHT22;56152;49.996;18.980;2023-04-28T11:59:28;20.80;43.30
43647;DHT22;56152;49.996;18.980;2023-04-28T12:04:32;20.80;42.30
43647;DHT22;56152;49.996;18.980;2023-04-28T12:09:37;19.90;42.70
43647;DHT22;56152;49.996;18.980;2023-04-28T12:14:55;19.70;43.50
43647;DHT22;56152;49.996;18.980;2023-04-28T12:20:00;19.80;43.80
43647;DHT22;56152;49.996;18.980;2023-04-28T12:25:03;20.00;43.30
43647;DHT22;56152;49.996;18.980;2023-04-28T12:30:25;19.70;43.00
43647;DHT22;56152;49.996;18.980;2023-04-28T12:35:30;20.20;43.70
43647;DHT22;56152;49.996;18.980;2023-04-28T12:40:34;20.40;43.10
43647;DHT22;56152;49.996;18.980;2023-04-28T12:45:36;19.80;43.70
43647;DHT22;56152;49.996;18.980;2023-04-28T12:50:40;19.10;44.00
43647;DHT22;56152;49.996;18.980;2023-04-28T12:55:42;18.60;44.00
43647;DHT22;56152;49.996;18.980;2023-04-28T13:00:44;18.40;45.20
43647;DHT22;56152;49.996;18.980;2023-04-28T13:05:47;18.70;45.00
43647;DHT22;56152;49.996;18.980;2023-04-28T13:10:49;19.00;44.30
43647;DHT22;56152;49.996;18.980;2023-04-28T13:15:51;18.90;44.30
43647;DHT22;56152;49.996;18.980;2023-04-28T13:20:58;19.30;44.00
43647;DHT22;56152;49.996;18.980;2023-04-28T13:26:00;19.40;44.10
43647;DHT22;56152;49.996;18.980;2023-04-28T13:31:03;19.60;43.40
43647;DHT22;56152;49.996;18.980;2023-04-28T13:36:07;19.70;44.50
43647;DHT22;56152;49.996;18.980;2023-04-28T13:41:10;19.90;43.50
43647;DHT22;56152;49.996;18.980;2023-04-28T13:46:12;20.40;44.00
43647;DHT22;56152;49.996;18.980;2023-04-28T13:51:16;20.80;43.70
43647;DHT22;56152;49.996;18.980;2023-04-28T13:56:18;20.80;42.90
43647;DHT22;56152;49.996;18.980;2023-04-28T14:01:20;20.60;42.90
43647;DHT22;56152;49.996;18.980;2023-04-28T14:06:26;20.40;43.20
43647;DHT22;56152;49.996;18.980;2023-04-28T14:11:29;20.50;43.50
43647;DHT22;56152;49.996;18.980;2023-04-28T14:16:34;20.50;42.70
43647;DHT22;56152;49.996;18.980;2023-04-28T14:21:37;20.40;43.20
43647;DHT22;56152;49.996;18.980;2023-04-28T14:26:39;20.60;43.40
43647;DHT22;56152;49.996;18.980;2023-04-28T14:31:43;21.10;43.00
43647;DHT22;56152;49.996;18.980;2023-04-28T14:36:50;21.00;42.70
43647;DHT22;56152;49.996;18.980;2023-04-28T14:41:52;21.20;43.10
43647;DHT22;56152;49.996;18.980;2023-04-28T14:46:55;21.20;42.80
43647;DHT22;56152;49.996;18.980;2023-04-28T14:51:59;20.90;41.80
43647;DHT22;56152;49.996;18.980;2023-04-28T14:57:01;20.80;42.60
43647;DHT22;56152;49.996;18.980;2023-04-28T15:02:06;20.50;43.00
43647;DHT22;56152;49.996;18.980;2023-04-28T15:07:11;20.30;43.00
43647;DHT22;56152;49.996;18.980;2023-04-28T15:12:12;19.60;43.60
43647;DHT22;56152;49.996;18.980;2023-04-28T15:17:15;19.40;43.80
43647;DHT22;56152;49.996;18.980;2023-04-28T15:22:19;19.00;44.30
43647;DHT22;56152;49.996;18.980;2023-04-28T15:27:21;18.50;44.10
43647;DHT22;56152;49.996;18.980;2023-04-28T15:32:23;18.20;45.00
43647;DHT22;56152;49.996;18.980;2023-04-28T15:37:38;17.90;45.50
43647;DHT22;56152;49.996;18.980;2023-04-28T15:42:42;17.80;45.70
43647;DHT22;56152;49.996;18.980;2023-04-28T15:47:49;17.60;46.00
43647;DHT22;56152;49.996;18.980;2023-04-28T15:52:53;17.50;46.30
43647;DHT22;56152;49.996;18.980;2023-04-28T15:57:55;17.30;46.70
43647;DHT22;56152;49.996;18.980;2023-04-28T16:02:57;17.30;46.50
43647;DHT22;56152;49.996;18.980;2023-04-28T16:08:04;17.30;46.60
43647;DHT22;56152;49.996;18.980;2023-04-28T16:13:08;17.30;47.20
43647;DHT22;56152;49.996;18.980;2023-04-28T16:18:15;17.20;47.90
43647;DHT22;56152;49.996;18.980;2023-04-28T16:23:20;17.10;48.00
43647;DHT22;56152;49.996;18.980;2023-04-28T16:28:22;16.80;48.30
43647;DHT22;56152;49.996;18.980;2023-04-28T16:33:24;16.60;48.40
43647;DHT22;56152;49.996;18.980;2023-04-28T16:38:28;16.40;48.80
43647;DHT22;56152;49.996;18.980;2023-04-28T16:43:30;16.20;49.00
43647;DHT22;56152;49.996;18.980;2023-04-28T16:48:32;16.00;49.50
43647;DHT22;56152;49.996;18.980;2023-04-28T16:53:38;15.80;50.10
43647;DHT22;56152;49.996;18.980;2023-04-28T16:58:41;15.50;50.30
43647;DHT22;56152;49.996;18.980;2023-04-28T17:03:44;15.30;50.60
43647;DHT22;56152;49.996;18.980;2023-04-28T17:08:49;15.20;50.50
43647;DHT22;56152;49.996;18.980;2023-04-28T17:13:51;15.00;50.80
43647;DHT22;56152;49.996;18.980;2023-04-28T17:18:53;14.90;51.10
43647;DHT22;56152;49.996;18.980;2023-04-28T17:23:58;14.80;51.20
43647;DHT22;56152;49.996;18.980;2023-04-28T17:29:00;14.70;51.70
43647;DHT22;56152;49.996;18.980;2023-04-28T17:34:05;14.50;52.30
43647;DHT22;56152;49.996;18.980;2023-04-28T17:39:10;14.50;52.80
43647;DHT22;56152;49.996;18.980;2023-04-28T17:44:13;14.30;53.00
43647;DHT22;56152;49.996;18.980;2023-04-28T17:49:15;14.30;53.10
43647;DHT22;56152;49.996;18.980;2023-04-28T17:54:19;14.20;53.70
43647;DHT22;56152;49.996;18.980;2023-04-28T17:59:22;14.10;53.90
43647;DHT22;56152;49.996;18.980;2023-04-28T18:04:25;14.00;54.30
43647;DHT22;56152;49.996;18.980;2023-04-28T18:09:28;13.90;54.70
43647;DHT22;56152;49.996;18.980;2023-04-28T18:14:31;13.70;55.00
43647;DHT22;56152;49.996;18.980;2023-04-28T18:19:34;13.60;55.00
43647;DHT22;56152;49.996;18.980;2023-04-28T18:24:38;13.50;55.30
43647;DHT22;56152;49.996;18.980;2023-04-28T18:29:40;13.30;55.50
43647;DHT22;56152;49.996;18.980;2023-04-28T18:34:42;13.20;55.60
43647;DHT22;56152;49.996;18.980;2023-04-28T18:39:47;13.00;55.80
43647;DHT22;56152;49.996;18.980;2023-04-28T18:44:51;12.80;56.10
43647;DHT22;56152;49.996;18.980;2023-04-28T18:49:53;12.60;56.40
43647;DHT22;56152;49.996;18.980;2023-04-28T18:54:58;12.40;56.90
43647;DHT22;56152;49.996;18.980;2023-04-28T19:00:00;12.40;57.80
43647;DHT22;56152;49.996;18.980;2023-04-28T19:05:09;12.40;58.30
43647;DHT22;56152;49.996;18.980;2023-04-28T19:10:22;12.40;57.80
43647;DHT22;56152;49.996;18.980;2023-04-28T19:15:26;12.50;57.80
43647;DHT22;56152;49.996;18.980;2023-04-28T19:20:28;12.60;58.20
43647;DHT22;56152;49.996;18.980;2023-04-28T19:25:32;12.50;58.20
43647;DHT22;56152;49.996;18.980;2023-04-28T19:30:36;12.50;58.30
43647;DHT22;56152;49.996;18.980;2023-04-28T19:35:40;12.50;57.80
43647;DHT22;56152;49.996;18.980;2023-04-28T19:40:44;12.50;57.80
43647;DHT22;56152;49.996;18.980;2023-04-28T19:45:46;12.40;57.80
43647;DHT22;56152;49.996;18.980;2023-04-28T19:50:54;12.40;58.70
43647;DHT22;56152;49.996;18.980;2023-04-28T19:55:59;12.50;57.70
43647;DHT22;56152;49.996;18.980;2023-04-28T20:01:04;12.50;57.90
43647;DHT22;56152;49.996;18.980;2023-04-28T20:06:07;12.40;58.00
43647;DHT22;56152;49.996;18.980;2023-04-28T20:11:11;12.30;58.10
43647;DHT22;56152;49.996;18.980;2023-04-28T20:16:13;12.20;58.40
43647;DHT22;56152;49.996;18.980;2023-04-28T20:21:15;12.10;58.70
43647;DHT22;56152;49.996;18.980;2023-04-28T20:26:18;11.90;59.30
43647;DHT22;56152;49.996;18.980;2023-04-28T20:31:21;11.80;60.00
43647;DHT22;56152;49.996;18.980;2023-04-28T20:36:25;11.70;60.90
43647;DHT22;56152;49.996;18.980;2023-04-28T20:41:29;11.50;61.30
43647;DHT22;56152;49.996;18.980;2023-04-28T20:46:34;11.50;61.40
43647;DHT22;56152;49.996;18.980;2023-04-28T20:51:36;11.40;61.30
43647;DHT22;56152;49.996;18.980;2023-04-28T20:56:47;11.40;61.40
43647;DHT22;56152;49.996;18.980;2023-04-28T21:01:49;11.40;61.80
43647;DHT22;56152;49.996;18.980;2023-04-28T21:06:52;11.40;62.00
43647;DHT22;56152;49.996;18.980;2023-04-28T21:11:57;11.20;61.50
43647;DHT22;56152;49.996;18.980;2023-04-28T21:17:00;11.10;61.70
43647;DHT22;56152;49.996;18.980;2023-04-28T21:22:03;11.00;62.00
43647;DHT22;56152;49.996;18.980;2023-04-28T21:27:10;10.90;62.80
43647;DHT22;56152;49.996;18.980;2023-04-28T21:32:15;10.80;63.20
43647;DHT22;56152;49.996;18.980;2023-04-28T21:37:19;10.70;63.50
43647;DHT22;56152;49.996;18.980;2023-04-28T21:42:23;10.60;63.70
43647;DHT22;56152;49.996;18.980;2023-04-28T21:47:31;10.60;64.40
43647;DHT22;56152;49.996;18.980;2023-04-28T21:52:34;10.60;64.50
43647;DHT22;56152;49.996;18.980;2023-04-28T21:57:39;10.60;64.50
43647;DHT22;56152;49.996;18.980;2023-04-28T22:02:44;10.60;64.90
43647;DHT22;56152;49.996;18.980;2023-04-28T22:07:46;10.60;65.30
43647;DHT22;56152;49.996;18.980;2023-04-28T22:12:49;10.60;65.80
43647;DHT22;56152;49.996;18.980;2023-04-28T22:17:54;10.60;66.10
43647;DHT22;56152;49.996;18.980;2023-04-28T22:22:58;10.50;66.20
43647;DHT22;56152;49.996;18.980;2023-04-28T22:28:02;10.50;66.50
43647;DHT22;56152;49.996;18.980;2023-04-28T22:33:04;10.40;67.00
43647;DHT22;56152;49.996;18.980;2023-04-28T22:38:09;10.40;67.50
43647;DHT22;56152;49.996;18.980;2023-04-28T22:43:13;10.40;68.10
43647;DHT22;56152;49.996;18.980;2023-04-28T22:48:17;10.40;68.20
43647;DHT22;56152;49.996;18.980;2023-04-28T22:53:19;10.40;68.30
43647;DHT22;56152;49.996;18.980;2023-04-28T22:58:23;10.40;68.40
43647;DHT22;56152;49.996;18.980;2023-04-28T23:03:25;10.40;68.30
43647;DHT22;56152;49.996;18.980;2023-04-28T23:08:30;10.40;68.50
43647;DHT22;56152;49.996;18.980;2023-04-28T23:13:36;10.30;68.70
43647;DHT22;56152;49.996;18.980;2023-04-28T23:18:37;10.30;68.90
43647;DHT22;56152;49.996;18.980;2023-04-28T23:23:40;10.20;69.00
43647;DHT22;56152;49.996;18.980;2023-04-28T23:28:45;10.20;69.30
43647;DHT22;56152;49.996;18.980;2023-04-28T23:33:47;10.10;69.40
43647;DHT22;56152;49.996;18.980;2023-04-28T23:38:49;10.10;69.10
43647;DHT22;56152;49.996;18.980;2023-04-28T23:43:53;10.10;69.00
43647;DHT22;56152;49.996;18.980;2023-04-28T23:49:07;10.00;69.60
43647;DHT22;56152;49.996;18.980;2023-04-28T23:54:11;10.00;70.30
43647;DHT22;56152;49.996;18.980;2023-04-28T23:59:14;9.90;70.60
